Wetterstation Vordersexau
Wetterdaten: Woche 09.05.11 - 15.05.11 (KW19)
Datum Zeit Temp. A. Feuchte A. Luftdruck Regen Wind Richtung Taupunkt Windchill Windben
09.05.2011 00:00 12,7 C 60 % 1017,1 hPa 0,0 l/m 0,0 km/h N-NO 5,1 C 12,7 C 0,0 km/h
09.05.2011 01:00 12,2 C 64 % 1017,5 hPa 0,0 l/m 1,3 km/h N 5,6 C 12,2 C 0,7 km/h
09.05.2011 02:00 12,5 C 64 % 1017,8 hPa 0,0 l/m 0,0 km/h SO 5,9 C 12,5 C 0,0 km/h
09.05.2011 03:00 10,4 C 69 % 1018,0 hPa 0,0 l/m 0,0 km/h SO 5,0 C 10,4 C 0,0 km/h
09.05.2011 04:00 8,4 C 76 % 1018,3 hPa 0,0 l/m 0,0 km/h NO 4,4 C 8,4 C 0,0 km/h
09.05.2011 05:00 8,4 C 79 % 1018,4 hPa 0,0 l/m 0,0 km/h S 5,0 C 8,4 C 0,0 km/h
09.05.2011 06:00 10,6 C 68 % 1018,7 hPa 0,0 l/m 0,0 km/h SO 4,9 C 10,6 C 0,0 km/h
09.05.2011 07:00 12,3 C 64 % 1019,6 hPa 0,0 l/m 0,0 km/h S-SO 5,7 C 12,3 C 0,0 km/h
09.05.2011 08:00 19,3 C 47 % 1019,8 hPa 0,0 l/m 20,1 km/h NO 7,7 C 15,3 C 11,2 km/h
09.05.2011 09:00 25,6 C 31 % 1019,8 hPa 0,0 l/m 0,0 km/h W 7,2 C 25,6 C 0,0 km/h
09.05.2011 10:00 27,8 C 29 % 1019,9 hPa 0,0 l/m 1,9 km/h S-SW 8,1 C 27,8 C 1,1 km/h
09.05.2011 11:00 28,1 C 30 % 1020,0 hPa 0,0 l/m 0,0 km/h N-NW 8,9 C 28,1 C 0,0 km/h
09.05.2011 12:00 27,1 C 32 % 1019,7 hPa 0,0 l/m 3,2 km/h N-NW 9,0 C 27,1 C 1,8 km/h
09.05.2011 13:00 28,8 C 31 % 1019,4 hPa 0,0 l/m 0,0 km/h W-NW 10,0 C 28,8 C 0,0 km/h
09.05.2011 14:00 29,6 C 32 % 1019,2 hPa 0,0 l/m 9,7 km/h N-NW 11,1 C 29,3 C 5,4 km/h
09.05.2011 15:00 31,4 C 29 % 1018,8 hPa 0,0 l/m 0,0 km/h N-NW 11,2 C 31,4 C 0,0 km/h
09.05.2011 16:00 32,5 C 27 % 1018,7 hPa 0,0 l/m 0,0 km/h N 11,1 C 32,5 C 0,0 km/h
09.05.2011 17:00 35,8 C 22 % 1018,6 hPa 0,0 l/m 1,9 km/h N 10,7 C 35,8 C 1,1 km/h
09.05.2011 18:00 32,9 C 22 % 1018,4 hPa 0,0 l/m 0,0 km/h N-NO 8,3 C 32,9 C 0,0 km/h
09.05.2011 19:00 28,2 C 26 % 1018,5 hPa 0,0 l/m 1,9 km/h NW 6,9 C 28,2 C 1,1 km/h
09.05.2011 20:00 20,9 C 41 % 1018,9 hPa 0,0 l/m 0,0 km/h SO 7,2 C 20,9 C 0,0 km/h
09.05.2011 21:00 16,6 C 57 % 1019,5 hPa 0,0 l/m 1,3 km/h S-SO 8,0 C 16,6 C 0,7 km/h
09.05.2011 22:00 14,3 C 65 % 1020,1 hPa 0,0 l/m 0,0 km/h O-SO 7,8 C 14,3 C 0,0 km/h
09.05.2011 23:00 11,8 C 69 % 1020,4 hPa 0,0 l/m 0,0 km/h S-SO 6,3 C 11,8 C 0,0 km/h
10.05.2011 00:00 11,9 C 67 % 1020,6 hPa 0,0 l/m 5,8 km/h NO 6,0 C 11,9 C 3,2 km/h
10.05.2011 01:00 10,9 C 69 % 1020,7 hPa 0,0 l/m 0,0 km/h NO 5,4 C 10,9 C 0,0 km/h
10.05.2011 02:00 10,5 C 69 % 1020,8 hPa 0,0 l/m 0,0 km/h NO 5,1 C 10,5 C 0,0 km/h
10.05.2011 03:00 9,9 C 70 % 1021,1 hPa 0,0 l/m 0,0 km/h NO 4,7 C 9,9 C 0,0 km/h
10.05.2011 04:00 9,8 C 70 % 1021,5 hPa 0,0 l/m 0,0 km/h O-SO 4,6 C 9,8 C 0,0 km/h
10.05.2011 05:00 9,8 C 70 % 1021,7 hPa 0,0 l/m 0,0 km/h NO 4,6 C 9,8 C 0,0 km/h
10.05.2011 06:00 9,6 C 71 % 1022,2 hPa 0,0 l/m 0,0 km/h O-NO 4,6 C 9,6 C 0,0 km/h
10.05.2011 07:00 12,6 C 66 % 1022,6 hPa 0,0 l/m 0,0 km/h SO 6,4 C 12,6 C 0,0 km/h
10.05.2011 08:00 20,9 C 49 % 1022,9 hPa 0,0 l/m 1,9 km/h W 9,8 C 20,9 C 1,1 km/h
10.05.2011 09:00 24,1 C 41 % 1023,3 hPa 0,0 l/m 2,6 km/h W-SW 10,0 C 24,1 C 1,4 km/h
10.05.2011 10:00 26,9 C 37 % 1023,1 hPa 0,0 l/m 7,1 km/h SW 11,0 C 26,8 C 4,0 km/h
10.05.2011 11:00 25,3 C 37 % 1023,3 hPa 0,0 l/m 0,0 km/h W 9,6 C 25,3 C 0,0 km/h
10.05.2011 12:00 28,1 C 35 % 1023,5 hPa 0,0 l/m 0,0 km/h S-SO 11,2 C 28,1 C 0,0 km/h
10.05.2011 13:00 29,6 C 34 % 1023,1 hPa 0,0 l/m 0,0 km/h W-NW 12,1 C 29,6 C 0,0 km/h
10.05.2011 14:00 28,3 C 34 % 1022,9 hPa 0,0 l/m 0,0 km/h N-NO 10,9 C 28,3 C 0,0 km/h
10.05.2011 15:00 32,6 C 28 % 1022,5 hPa 0,0 l/m 0,0 km/h S-SW 11,7 C 32,6 C 0,0 km/h
10.05.2011 16:00 33,9 C 25 % 1021,9 hPa 0,0 l/m 0,0 km/h N-NO 11,1 C 33,9 C 0,0 km/h
10.05.2011 17:00 34,3 C 23 % 1021,4 hPa 0,0 l/m 0,0 km/h NO 10,2 C 34,3 C 0,0 km/h
10.05.2011 18:00 31,3 C 25 % 1021,3 hPa 0,0 l/m 0,0 km/h O-NO 8,9 C 31,3 C 0,0 km/h
10.05.2011 19:00 24,9 C 42 % 1021,1 hPa 0,0 l/m 0,0 km/h O-NO 11,1 C 24,9 C 0,0 km/h
10.05.2011 20:00 20,5 C 51 % 1021,1 hPa 0,0 l/m 0,0 km/h NO 10,0 C 20,5 C 0,0 km/h
10.05.2011 21:00 18,6 C 59 % 1021,7 hPa 0,0 l/m 1,3 km/h O-NO 10,4 C 18,6 C 0,7 km/h
10.05.2011 22:00 17,3 C 65 % 1022,5 hPa 0,0 l/m 0,0 km/h SO 10,7 C 17,3 C 0,0 km/h
10.05.2011 23:00 16,5 C 68 % 1022,6 hPa 0,0 l/m 2,6 km/h O-SO 10,6 C 16,5 C 1,4 km/h
11.05.2011 00:00 15,2 C 70 % 1022,3 hPa 0,0 l/m 0,0 km/h O-SO 9,8 C 15,2 C 0,0 km/h
11.05.2011 01:00 13,3 C 76 % 1021,9 hPa 0,0 l/m 0,0 km/h O 9,2 C 13,3 C 0,0 km/h
11.05.2011 02:00 14,9 C 71 % 1021,3 hPa 0,0 l/m 0,0 km/h O-SO 9,7 C 14,9 C 0,0 km/h
11.05.2011 03:00 13,8 C 74 % 1021,2 hPa 0,0 l/m 0,0 km/h N-NW 9,2 C 13,8 C 0,0 km/h
11.05.2011 04:00 13,8 C 76 % 1021,8 hPa 0,0 l/m 0,0 km/h SO 9,6 C 13,8 C 0,0 km/h
11.05.2011 05:00 13,0 C 79 % 1021,8 hPa 0,0 l/m 0,0 km/h W 9,4 C 13,0 C 0,0 km/h
11.05.2011 06:00 12,6 C 81 % 1022,0 hPa 0,0 l/m 0,0 km/h S-SO 9,4 C 12,6 C 0,0 km/h
11.05.2011 07:00 15,1 C 78 % 1022,3 hPa 0,0 l/m 0,0 km/h S-SO 11,3 C 15,1 C 0,0 km/h
11.05.2011 08:00 15,9 C 75 % 1021,3 hPa 0,0 l/m 6,5 km/h NW 11,5 C 15,9 C 3,6 km/h
11.05.2011 09:00 16,9 C 75 % 1022,7 hPa 0,0 l/m 0,0 km/h S-SO 12,4 C 16,9 C 0,0 km/h
11.05.2011 10:00 16,1 C 81 % 1021,9 hPa 0,4 l/m 5,8 km/h W 12,8 C 16,1 C 3,2 km/h
11.05.2011 11:00 22,9 C 66 % 1021,4 hPa 0,0 l/m 1,9 km/h W-SW 16,2 C 22,9 C 1,1 km/h
11.05.2011 12:00 23,2 C 63 % 1021,4 hPa 0,4 l/m 5,2 km/h S-SW 15,8 C 23,2 C 2,9 km/h
11.05.2011 13:00 25,7 C 55 % 1020,9 hPa 0,0 l/m 6,5 km/h S 16,0 C 25,7 C 3,6 km/h
11.05.2011 14:00 28,5 C 44 % 1019,6 hPa 0,0 l/m 11,0 km/h S-SW 15,0 C 27,9 C 6,1 km/h
11.05.2011 15:00 31,1 C 37 % 1018,8 hPa 0,0 l/m 0,0 km/h NW 14,7 C 31,1 C 0,0 km/h
11.05.2011 16:00 31,8 C 34 % 1018,1 hPa 0,0 l/m 0,0 km/h N-NO 14,0 C 31,8 C 0,0 km/h
11.05.2011 17:00 25,9 C 43 % 1017,9 hPa 0,0 l/m 5,8 km/h N-NO 12,3 C 25,9 C 3,2 km/h
11.05.2011 18:00 24,6 C 47 % 1017,4 hPa 0,0 l/m 3,9 km/h N-NO 12,5 C 24,6 C 2,2 km/h
11.05.2011 19:00 22,9 C 50 % 1017,2 hPa 0,0 l/m 4,5 km/h O-SO 11,9 C 22,9 C 2,5 km/h
11.05.2011 20:00 20,4 C 61 % 1017,1 hPa 0,0 l/m 0,0 km/h SW 12,6 C 20,4 C 0,0 km/h
11.05.2011 21:00 18,5 C 64 % 1017,3 hPa 0,0 l/m 0,0 km/h O-SO 11,6 C 18,5 C 0,0 km/h
11.05.2011 22:00 16,1 C 74 % 1017,8 hPa 0,0 l/m 0,0 km/h SO 11,5 C 16,1 C 0,0 km/h
11.05.2011 23:00 16,1 C 74 % 1017,4 hPa 0,0 l/m 0,0 km/h SO 11,5 C 16,1 C 0,0 km/h
12.05.2011 00:00 16,4 C 74 % 1017,3 hPa 0,0 l/m 0,0 km/h SO 11,8 C 16,4 C 0,0 km/h
12.05.2011 01:00 15,5 C 81 % 1017,0 hPa 0,0 l/m 0,0 km/h SO 12,3 C 15,5 C 0,0 km/h
12.05.2011 02:00 14,2 C 83 % 1016,6 hPa 0,0 l/m 0,0 km/h SO 11,4 C 14,2 C 0,0 km/h
12.05.2011 03:00 14,4 C 83 % 1015,8 hPa 0,0 l/m 0,0 km/h S-SO 11,5 C 14,4 C 0,0 km/h
12.05.2011 04:00 14,3 C 83 % 1015,5 hPa 0,0 l/m 0,0 km/h S-SO 11,5 C 14,3 C 0,0 km/h
12.05.2011 05:00 13,5 C 85 % 1015,1 hPa 0,0 l/m 9,1 km/h SO 11,0 C 11,9 C 5,0 km/h
12.05.2011 06:00 13,6 C 85 % 1015,1 hPa 0,0 l/m 0,0 km/h SO 11,1 C 13,6 C 0,0 km/h
12.05.2011 07:00 14,7 C 83 % 1015,3 hPa 0,0 l/m 0,0 km/h W-SW 11,8 C 14,7 C 0,0 km/h
12.05.2011 08:00 14,9 C 83 % 1016,0 hPa 0,0 l/m 0,0 km/h SW 12,0 C 14,9 C 0,0 km/h
12.05.2011 09:00 14,3 C 85 % 1017,0 hPa 2,1 l/m 0,0 km/h S-SO 11,8 C 14,3 C 0,0 km/h
12.05.2011 10:00 14,8 C 85 % 1016,4 hPa 1,4 l/m 0,0 km/h W-NW 12,3 C 14,8 C 0,0 km/h
12.05.2011 11:00 19,9 C 79 % 1016,4 hPa 0,4 l/m 3,9 km/h W-SW 16,1 C 19,9 C 2,2 km/h
12.05.2011 12:00 18,6 C 75 % 1016,6 hPa 0,0 l/m 6,5 km/h W 14,1 C 18,6 C 3,6 km/h
12.05.2011 13:00 19,4 C 73 % 1016,6 hPa 0,0 l/m 1,3 km/h SW 14,4 C 19,4 C 0,7 km/h
12.05.2011 14:00 20,1 C 69 % 1016,3 hPa 0,0 l/m 0,0 km/h S-SO 14,2 C 20,1 C 0,0 km/h
12.05.2011 15:00 25,3 C 56 % 1016,2 hPa 0,0 l/m 5,8 km/h W-NW 15,9 C 25,3 C 3,2 km/h
12.05.2011 16:00 20,1 C 64 % 1016,2 hPa 0,0 l/m 4,5 km/h N-NW 13,1 C 20,1 C 2,5 km/h
12.05.2011 17:00 25,0 C 50 % 1016,1 hPa 0,0 l/m 9,7 km/h N-NW 13,8 C 24,2 C 5,4 km/h
12.05.2011 18:00 21,9 C 52 % 1016,2 hPa 0,0 l/m 0,0 km/h W-NW 11,6 C 21,9 C 0,0 km/h
12.05.2011 19:00 23,1 C 49 % 1016,3 hPa 0,0 l/m 0,0 km/h W 11,8 C 23,1 C 0,0 km/h
12.05.2011 20:00 17,7 C 64 % 1016,8 hPa 0,0 l/m 0,0 km/h O-NO 10,8 C 17,7 C 0,0 km/h
12.05.2011 21:00 15,3 C 75 % 1017,7 hPa 0,0 l/m 0,0 km/h NO 10,9 C 15,3 C 0,0 km/h
12.05.2011 22:00 14,3 C 79 % 1018,6 hPa 0,0 l/m 0,0 km/h NO 10,7 C 14,3 C 0,0 km/h
12.05.2011 23:00 12,9 C 81 % 1019,4 hPa 0,0 l/m 0,0 km/h N-NO 9,7 C 12,9 C 0,0 km/h
13.05.2011 00:00 11,9 C 81 % 1019,8 hPa 0,0 l/m 0,0 km/h N-NO 8,7 C 11,9 C 0,0 km/h
13.05.2011 01:00 10,1 C 83 % 1020,0 hPa 0,0 l/m 0,0 km/h SO 7,3 C 10,1 C 0,0 km/h
13.05.2011 02:00 9,9 C 84 % 1020,2 hPa 0,0 l/m 0,0 km/h NO 7,3 C 9,9 C 0,0 km/h
13.05.2011 03:00 8,4 C 85 % 1020,5 hPa 0,0 l/m 0,6 km/h O-SO 6,0 C 8,4 C 0,4 km/h
13.05.2011 04:00 7,2 C 86 % 1020,5 hPa 0,0 l/m 0,0 km/h NO 5,0 C 7,2 C 0,0 km/h
13.05.2011 05:00 6,8 C 86 % 1020,5 hPa 0,0 l/m 1,3 km/h O-NO 4,6 C 6,8 C 0,7 km/h
13.05.2011 06:00 6,4 C 86 % 1020,8 hPa 0,0 l/m 0,0 km/h SO 4,2 C 6,4 C 0,0 km/h
13.05.2011 07:00 8,2 C 86 % 1021,0 hPa 0,0 l/m 4,5 km/h O-NO 6,0 C 8,2 C 2,5 km/h
13.05.2011 08:00 18,8 C 65 % 1020,7 hPa 0,0 l/m 0,0 km/h NW 12,1 C 18,8 C 0,0 km/h
13.05.2011 09:00 21,9 C 49 % 1020,5 hPa 0,0 l/m 3,2 km/h W 10,7 C 21,9 C 1,8 km/h
13.05.2011 10:00 22,5 C 47 % 1020,1 hPa 0,0 l/m 0,0 km/h NW 10,6 C 22,5 C 0,0 km/h
13.05.2011 11:00 22,9 C 47 % 1019,9 hPa 0,0 l/m 10,4 km/h W 11,0 C 21,7 C 5,8 km/h
13.05.2011 12:00 22,1 C 48 % 1019,4 hPa 0,0 l/m 10,4 km/h W-NW 10,6 C 20,9 C 5,8 km/h
13.05.2011 13:00 23,1 C 44 % 1018,6 hPa 0,0 l/m 9,1 km/h W 10,2 C 22,3 C 5,0 km/h
13.05.2011 14:00 23,8 C 43 % 1017,6 hPa 0,0 l/m 11,0 km/h N-NO 10,5 C 22,6 C 6,1 km/h
13.05.2011 15:00 26,8 C 37 % 1016,6 hPa 0,0 l/m 11,0 km/h N-NW 10,9 C 26,0 C 6,1 km/h
13.05.2011 16:00 27,4 C 34 % 1016,3 hPa 0,0 l/m 8,4 km/h N-NO 10,1 C 27,1 C 4,7 km/h
13.05.2011 17:00 28,6 C 33 % 1016,0 hPa 0,0 l/m 0,0 km/h N-NO 10,7 C 28,6 C 0,0 km/h
13.05.2011 18:00 27,6 C 32 % 1015,5 hPa 0,0 l/m 7,8 km/h N-NO 9,4 C 27,4 C 4,3 km/h
13.05.2011 19:00 24,9 C 36 % 1015,1 hPa 0,0 l/m 0,0 km/h NO 8,8 C 24,9 C 0,0 km/h
13.05.2011 20:00 17,9 C 56 % 1014,9 hPa 0,0 l/m 0,0 km/h O 9,0 C 17,9 C 0,0 km/h
13.05.2011 21:00 13,6 C 68 % 1015,1 hPa 0,0 l/m 0,0 km/h S-SO 7,8 C 13,6 C 0,0 km/h
13.05.2011 22:00 11,6 C 76 % 1015,2 hPa 0,0 l/m 0,0 km/h NO 7,5 C 11,6 C 0,0 km/h
13.05.2011 23:00 11,3 C 78 % 1015,0 hPa 0,0 l/m 0,0 km/h O-NO 7,6 C 11,3 C 0,0 km/h
14.05.2011 00:00 10,4 C 80 % 1014,9 hPa 0,0 l/m 0,0 km/h O-NO 7,1 C 10,4 C 0,0 km/h
14.05.2011 01:00 9,9 C 82 % 1014,4 hPa 0,0 l/m 0,0 km/h O-SO 7,0 C 9,9 C 0,0 km/h
14.05.2011 02:00 9,8 C 83 % 1014,1 hPa 0,0 l/m 0,0 km/h O-SO 7,1 C 9,8 C 0,0 km/h
14.05.2011 03:00 10,4 C 82 % 1013,9 hPa 0,0 l/m 0,0 km/h N-NO 7,5 C 10,4 C 0,0 km/h
14.05.2011 04:00 10,1 C 83 % 1013,8 hPa 0,0 l/m 0,0 km/h O-NO 7,3 C 10,1 C 0,0 km/h
14.05.2011 05:00 9,0 C 84 % 1013,7 hPa 0,0 l/m 0,0 km/h SO 6,4 C 9,0 C 0,0 km/h
14.05.2011 06:00 8,5 C 86 % 1014,0 hPa 0,0 l/m 0,0 km/h SO 6,3 C 8,5 C 0,0 km/h
14.05.2011 07:00 10,3 C 85 % 1014,0 hPa 0,0 l/m 0,0 km/h SO 7,9 C 10,3 C 0,0 km/h
14.05.2011 08:00 19,5 C 66 % 1013,6 hPa 0,0 l/m 0,0 km/h S-SW 13,0 C 19,5 C 0,0 km/h
14.05.2011 09:00 24,1 C 48 % 1014,0 hPa 0,0 l/m 0,0 km/h W-SW 12,4 C 24,1 C 0,0 km/h
14.05.2011 10:00 26,5 C 40 % 1013,6 hPa 0,0 l/m 0,0 km/h N-NO 11,8 C 26,5 C 0,0 km/h
14.05.2011 11:00 26,2 C 37 % 1013,5 hPa 0,0 l/m 0,0 km/h NO 10,3 C 26,2 C 0,0 km/h
14.05.2011 12:00 25,0 C 36 % 1013,1 hPa 0,0 l/m 5,2 km/h W 8,9 C 25,0 C 2,9 km/h
14.05.2011 13:00 22,2 C 39 % 1012,8 hPa 0,0 l/m 0,0 km/h W 7,6 C 22,2 C 0,0 km/h
14.05.2011 14:00 18,6 C 50 % 1013,1 hPa 0,0 l/m 1,3 km/h NW 8,0 C 18,6 C 0,7 km/h
14.05.2011 15:00 14,6 C 61 % 1014,5 hPa 0,0 l/m 6,5 km/h SO 7,2 C 14,6 C 3,6 km/h
14.05.2011 16:00 12,9 C 75 % 1015,4 hPa 0,4 l/m 0,0 km/h S 8,6 C 12,9 C 0,0 km/h
14.05.2011 17:00 11,9 C 81 % 1016,0 hPa 0,4 l/m 0,0 km/h S 8,7 C 11,9 C 0,0 km/h
14.05.2011 18:00 11,2 C 83 % 1016,3 hPa 0,7 l/m 0,0 km/h SO 8,4 C 11,2 C 0,0 km/h
14.05.2011 19:00 11,6 C 83 % 1016,3 hPa 0,0 l/m 0,0 km/h SO 8,8 C 11,6 C 0,0 km/h
14.05.2011 20:00 11,2 C 83 % 1016,6 hPa 0,4 l/m 0,0 km/h S 8,4 C 11,2 C 0,0 km/h
14.05.2011 21:00 10,7 C 86 % 1017,2 hPa 0,4 l/m 0,0 km/h S 8,5 C 10,7 C 0,0 km/h
14.05.2011 22:00 10,3 C 85 % 1017,9 hPa 0,0 l/m 0,0 km/h S 7,9 C 10,3 C 0,0 km/h
14.05.2011 23:00 10,3 C 86 % 1018,1 hPa 0,0 l/m 0,0 km/h NO 8,1 C 10,3 C 0,0 km/h
15.05.2011 00:00 10,3 C 86 % 1018,2 hPa 0,4 l/m 0,0 km/h NO 8,1 C 10,3 C 0,0 km/h
15.05.2011 01:00 10,1 C 86 % 1018,6 hPa 0,0 l/m 0,0 km/h NO 7,9 C 10,1 C 0,0 km/h
15.05.2011 02:00 9,3 C 86 % 1018,7 hPa 0,0 l/m 0,0 km/h O-NO 7,1 C 9,3 C 0,0 km/h
15.05.2011 03:00 8,1 C 86 % 1019,0 hPa 0,0 l/m 0,0 km/h O-NO 5,9 C 8,1 C 0,0 km/h
15.05.2011 04:00 7,3 C 86 % 1019,1 hPa 0,0 l/m 0,0 km/h O-NO 5,1 C 7,3 C 0,0 km/h
15.05.2011 05:00 6,1 C 87 % 1019,2 hPa 0,0 l/m 0,0 km/h NO 4,1 C 6,1 C 0,0 km/h
15.05.2011 06:00 5,9 C 87 % 1019,5 hPa 0,0 l/m 0,0 km/h SO 3,9 C 5,9 C 0,0 km/h
15.05.2011 07:00 7,9 C 85 % 1020,2 hPa 0,0 l/m 0,0 km/h NO 5,5 C 7,9 C 0,0 km/h
15.05.2011 08:00 17,1 C 78 % 1020,3 hPa 0,0 l/m 0,0 km/h W-SW 13,2 C 17,1 C 0,0 km/h
15.05.2011 09:00 19,2 C 55 % 1020,3 hPa 0,0 l/m 3,2 km/h W 9,9 C 19,2 C 1,8 km/h
15.05.2011 10:00 20,6 C 46 % 1020,4 hPa 0,0 l/m 0,0 km/h NW 8,6 C 20,6 C 0,0 km/h
15.05.2011 11:00 20,8 C 42 % 1020,1 hPa 0,0 l/m 7,1 km/h N 7,4 C 20,5 C 4,0 km/h
15.05.2011 12:00 15,2 C 48 % 1020,5 hPa 0,0 l/m 21,4 km/h SO 4,3 C 9,7 C 11,9 km/h
15.05.2011 13:00 15,4 C 59 % 1020,5 hPa 0,0 l/m 0,0 km/h NW 7,4 C 15,4 C 0,0 km/h
15.05.2011 14:00 16,1 C 50 % 1020,7 hPa 0,0 l/m 0,0 km/h NW 5,7 C 16,1 C 0,0 km/h
15.05.2011 15:00 19,8 C 45 % 1020,6 hPa 0,0 l/m 0,0 km/h W-SW 7,5 C 19,8 C 0,0 km/h
15.05.2011 16:00 11,9 C 71 % 1021,3 hPa 0,0 l/m 0,0 km/h N-NO 6,8 C 11,9 C 0,0 km/h
15.05.2011 17:00 12,9 C 67 % 1021,7 hPa 0,4 l/m 0,0 km/h S-SO 6,9 C 12,9 C 0,0 km/h
15.05.2011 18:00 19,5 C 51 % 1021,4 hPa 0,0 l/m 2,6 km/h W 9,1 C 19,5 C 1,4 km/h
15.05.2011 19:00 14,3 C 61 % 1021,7 hPa 0,0 l/m 0,0 km/h W 6,9 C 14,3 C 0,0 km/h
15.05.2011 20:00 10,6 C 74 % 1022,1 hPa 0,0 l/m 0,0 km/h N-NO 6,2 C 10,6 C 0,0 km/h
15.05.2011 21:00 9,6 C 81 % 1023,1 hPa 0,0 l/m 0,0 km/h SO 6,5 C 9,6 C 0,0 km/h
15.05.2011 22:00 9,2 C 84 % 1023,6 hPa 0,4 l/m 7,8 km/h SO 6,6 C 8,2 C 4,3 km/h
15.05.2011 23:00 8,9 C 85 % 1023,8 hPa 0,0 l/m 0,0 km/h O-NO 6,5 C 8,9 C 0,0 km/h
Min-Datum _ 15.05.11 09.05.11 14.05.11 - 09.05.11 - 15.05.11 15.05.11 09.05.11
_ Min-Zeit 06:30 17:30 13:30 - 00:30 - 06:30 06:30 00:30
Minimum _ 5,9 C 22 % 1012,8 hPa - 0,0 km/h - 3,9 C 5,9 C 0,0 km/h
Max-Datum _ 09.05.11 15.05.11 15.05.11 12.05.11 15.05.11 - 11.05.11 09.05.11 15.05.11
_ Max-Zeit 17:30 05:30 23:30 09:30 12:30 - 11:30 17:30 12:30
Maximum _ 35,8 C 87 % 1023,8 hPa 2,1 l/m 21,4 km/h
SO
- 16,2 C 35,8 C 11,9 km/h
SO
Durchschnitt _ 17,5 C 63 % 1018,8 hPa #7,8 l/m 1,7 km/h SO 9,2 C 17,4 C 1,0 km/h
www.sexauwetter.de